sensor_id;sensor_type;location;lat;lon;timestamp;temperature;humidity
17423;DHT22;8829;47.932;7.810;2023-03-11T00:00:12;4.60;99.90
17423;DHT22;8829;47.932;7.810;2023-03-11T00:02:41;4.70;99.90
17423;DHT22;8829;47.932;7.810;2023-03-11T00:05:13;4.80;99.90
17423;DHT22;8829;47.932;7.810;2023-03-11T00:07:42;4.80;99.90
17423;DHT22;8829;47.932;7.810;2023-03-11T00:10:13;4.80;99.90
17423;DHT22;8829;47.932;7.810;2023-03-11T00:12:43;4.90;99.90
17423;DHT22;8829;47.932;7.810;2023-03-11T00:15:11;5.00;99.90
17423;DHT22;8829;47.932;7.810;2023-03-11T00:17:41;5.10;99.90
17423;DHT22;8829;47.932;7.810;2023-03-11T00:20:16;5.20;99.90
17423;DHT22;8829;47.932;7.810;2023-03-11T00:22:43;5.30;99.90
17423;DHT22;8829;47.932;7.810;2023-03-11T00:25:11;5.40;99.90
17423;DHT22;8829;47.932;7.810;2023-03-11T00:27:39;5.40;99.90
17423;DHT22;8829;47.932;7.810;2023-03-11T00:30:07;5.30;99.90
17423;DHT22;8829;47.932;7.810;2023-03-11T00:32:34;5.30;99.90
17423;DHT22;8829;47.932;7.810;2023-03-11T00:35:00;5.00;99.90
17423;DHT22;8829;47.932;7.810;2023-03-11T00:37:27;4.70;99.90
17423;DHT22;8829;47.932;7.810;2023-03-11T00:39:54;4.40;99.90
17423;DHT22;8829;47.932;7.810;2023-03-11T00:42:22;4.20;99.90
17423;DHT22;8829;47.932;7.810;2023-03-11T00:44:49;4.40;99.90
17423;DHT22;8829;47.932;7.810;2023-03-11T00:47:16;4.10;99.90
17423;DHT22;8829;47.932;7.810;2023-03-11T00:49:45;4.00;99.90
17423;DHT22;8829;47.932;7.810;2023-03-11T00:52:12;4.20;99.90
17423;DHT22;8829;47.932;7.810;2023-03-11T00:54:39;4.40;99.90
17423;DHT22;8829;47.932;7.810;2023-03-11T00:57:05;4.60;99.90
17423;DHT22;8829;47.932;7.810;2023-03-11T00:59:34;4.70;99.90
17423;DHT22;8829;47.932;7.810;2023-03-11T01:02:01;4.70;99.90
17423;DHT22;8829;47.932;7.810;2023-03-11T01:04:27;4.70;99.90
17423;DHT22;8829;47.932;7.810;2023-03-11T01:06:54;4.80;99.90
17423;DHT22;8829;47.932;7.810;2023-03-11T01:09:23;4.80;99.90
17423;DHT22;8829;47.932;7.810;2023-03-11T01:11:50;4.90;99.90
17423;DHT22;8829;47.932;7.810;2023-03-11T01:14:19;4.90;99.90
17423;DHT22;8829;47.932;7.810;2023-03-11T01:16:47;4.90;99.90
17423;DHT22;8829;47.932;7.810;2023-03-11T01:19:15;4.80;99.90
17423;DHT22;8829;47.932;7.810;2023-03-11T01:21:42;4.90;99.90
17423;DHT22;8829;47.932;7.810;2023-03-11T01:24:08;5.00;99.90
17423;DHT22;8829;47.932;7.810;2023-03-11T01:26:35;4.90;99.90
17423;DHT22;8829;47.932;7.810;2023-03-11T01:29:02;4.80;99.90
17423;DHT22;8829;47.932;7.810;2023-03-11T01:31:29;4.70;99.90
17423;DHT22;8829;47.932;7.810;2023-03-11T01:33:57;4.60;99.90
17423;DHT22;8829;47.932;7.810;2023-03-11T01:36:25;4.20;99.90
17423;DHT22;8829;47.932;7.810;2023-03-11T01:38:52;4.10;99.90
17423;DHT22;8829;47.932;7.810;2023-03-11T01:41:20;4.20;99.90
17423;DHT22;8829;47.932;7.810;2023-03-11T01:43:50;4.00;99.90
17423;DHT22;8829;47.932;7.810;2023-03-11T01:46:20;3.90;99.90
17423;DHT22;8829;47.932;7.810;2023-03-11T01:48:49;4.00;99.90
17423;DHT22;8829;47.932;7.810;2023-03-11T01:51:23;3.90;99.90
17423;DHT22;8829;47.932;7.810;2023-03-11T01:53:53;3.80;99.90
17423;DHT22;8829;47.932;7.810;2023-03-11T01:56:20;3.80;99.90
17423;DHT22;8829;47.932;7.810;2023-03-11T01:58:48;3.70;99.90
17423;DHT22;8829;47.932;7.810;2023-03-11T02:01:16;3.60;99.90
17423;DHT22;8829;47.932;7.810;2023-03-11T02:03:44;3.30;99.90
17423;DHT22;8829;47.932;7.810;2023-03-11T02:06:13;3.30;99.90
17423;DHT22;8829;47.932;7.810;2023-03-11T02:08:41;3.20;99.90
17423;DHT22;8829;47.932;7.810;2023-03-11T02:11:11;3.10;99.90
17423;DHT22;8829;47.932;7.810;2023-03-11T02:13:40;3.20;99.90
17423;DHT22;8829;47.932;7.810;2023-03-11T02:16:11;3.10;99.90
17423;DHT22;8829;47.932;7.810;2023-03-11T02:18:38;3.00;99.90
17423;DHT22;8829;47.932;7.810;2023-03-11T02:21:12;3.10;99.90
17423;DHT22;8829;47.932;7.810;2023-03-11T02:23:54;3.30;99.90
17423;DHT22;8829;47.932;7.810;2023-03-11T02:26:24;3.40;99.90
17423;DHT22;8829;47.932;7.810;2023-03-11T02:28:55;3.30;99.90
17423;DHT22;8829;47.932;7.810;2023-03-11T02:31:23;3.60;99.90
17423;DHT22;8829;47.932;7.810;2023-03-11T02:33:52;3.70;99.90
17423;DHT22;8829;47.932;7.810;2023-03-11T02:36:31;3.90;99.90
17423;DHT22;8829;47.932;7.810;2023-03-11T02:38:57;4.00;99.90
17423;DHT22;8829;47.932;7.810;2023-03-11T02:41:24;3.90;99.90
17423;DHT22;8829;47.932;7.810;2023-03-11T02:43:54;3.90;99.90
17423;DHT22;8829;47.932;7.810;2023-03-11T02:46:21;3.90;99.90
17423;DHT22;8829;47.932;7.810;2023-03-11T02:48:48;4.00;99.90
17423;DHT22;8829;47.932;7.810;2023-03-11T02:51:15;3.90;99.90
17423;DHT22;8829;47.932;7.810;2023-03-11T02:53:46;3.50;99.90
17423;DHT22;8829;47.932;7.810;2023-03-11T02:56:13;3.20;99.90
17423;DHT22;8829;47.932;7.810;2023-03-11T02:58:40;3.10;99.90
17423;DHT22;8829;47.932;7.810;2023-03-11T03:01:09;3.00;99.90
17423;DHT22;8829;47.932;7.810;2023-03-11T03:03:37;3.00;99.90
17423;DHT22;8829;47.932;7.810;2023-03-11T03:06:04;3.00;99.90
17423;DHT22;8829;47.932;7.810;2023-03-11T03:08:31;2.90;99.90
17423;DHT22;8829;47.932;7.810;2023-03-11T03:11:00;2.90;99.90
17423;DHT22;8829;47.932;7.810;2023-03-11T03:13:28;2.90;99.90
17423;DHT22;8829;47.932;7.810;2023-03-11T03:15:55;2.70;99.90
17423;DHT22;8829;47.932;7.810;2023-03-11T03:18:23;2.70;99.90
17423;DHT22;8829;47.932;7.810;2023-03-11T03:20:50;2.70;99.90
17423;DHT22;8829;47.932;7.810;2023-03-11T03:23:17;2.70;99.90
17423;DHT22;8829;47.932;7.810;2023-03-11T03:25:44;2.70;99.90
17423;DHT22;8829;47.932;7.810;2023-03-11T03:28:11;2.80;99.90
17423;DHT22;8829;47.932;7.810;2023-03-11T03:30:39;3.10;99.90
17423;DHT22;8829;47.932;7.810;2023-03-11T03:33:06;3.10;99.90
17423;DHT22;8829;47.932;7.810;2023-03-11T03:35:34;3.30;99.90
17423;DHT22;8829;47.932;7.810;2023-03-11T03:38:01;3.50;99.90
17423;DHT22;8829;47.932;7.810;2023-03-11T03:40:28;3.20;99.90
17423;DHT22;8829;47.932;7.810;2023-03-11T03:42:55;2.90;99.90
17423;DHT22;8829;47.932;7.810;2023-03-11T03:45:21;2.80;99.90
17423;DHT22;8829;47.932;7.810;2023-03-11T03:47:48;3.00;99.90
17423;DHT22;8829;47.932;7.810;2023-03-11T03:50:15;2.90;99.90
17423;DHT22;8829;47.932;7.810;2023-03-11T03:52:43;2.90;99.90
17423;DHT22;8829;47.932;7.810;2023-03-11T03:55:10;2.80;99.90
17423;DHT22;8829;47.932;7.810;2023-03-11T03:57:37;2.70;99.90
17423;DHT22;8829;47.932;7.810;2023-03-11T04:00:04;2.70;99.90
17423;DHT22;8829;47.932;7.810;2023-03-11T04:02:33;2.70;99.90
17423;DHT22;8829;47.932;7.810;2023-03-11T04:05:00;2.70;99.90
17423;DHT22;8829;47.932;7.810;2023-03-11T04:07:27;2.60;99.90
17423;DHT22;8829;47.932;7.810;2023-03-11T04:09:55;2.50;99.90
17423;DHT22;8829;47.932;7.810;2023-03-11T04:12:22;2.40;99.90
17423;DHT22;8829;47.932;7.810;2023-03-11T04:14:49;2.40;99.90
17423;DHT22;8829;47.932;7.810;2023-03-11T04:17:17;2.40;99.90
17423;DHT22;8829;47.932;7.810;2023-03-11T04:19:43;2.30;99.90
17423;DHT22;8829;47.932;7.810;2023-03-11T04:22:12;2.30;99.90
17423;DHT22;8829;47.932;7.810;2023-03-11T04:24:39;2.30;99.90
17423;DHT22;8829;47.932;7.810;2023-03-11T04:27:07;2.30;99.90
17423;DHT22;8829;47.932;7.810;2023-03-11T04:29:33;2.20;99.90
17423;DHT22;8829;47.932;7.810;2023-03-11T04:32:04;2.10;99.90
17423;DHT22;8829;47.932;7.810;2023-03-11T04:34:31;2.10;99.90
17423;DHT22;8829;47.932;7.810;2023-03-11T04:36:58;2.20;99.90
17423;DHT22;8829;47.932;7.810;2023-03-11T04:39:25;2.30;99.90
17423;DHT22;8829;47.932;7.810;2023-03-11T04:41:51;2.30;99.90
17423;DHT22;8829;47.932;7.810;2023-03-11T04:44:19;2.10;99.90
17423;DHT22;8829;47.932;7.810;2023-03-11T04:46:46;2.20;99.90
17423;DHT22;8829;47.932;7.810;2023-03-11T04:49:13;2.30;99.90
17423;DHT22;8829;47.932;7.810;2023-03-11T04:51:40;2.10;99.90
17423;DHT22;8829;47.932;7.810;2023-03-11T04:54:07;2.00;99.90
17423;DHT22;8829;47.932;7.810;2023-03-11T04:56:34;1.90;99.90
17423;DHT22;8829;47.932;7.810;2023-03-11T04:59:01;1.90;99.90
17423;DHT22;8829;47.932;7.810;2023-03-11T05:01:32;1.80;99.90
17423;DHT22;8829;47.932;7.810;2023-03-11T05:03:58;1.90;99.90
17423;DHT22;8829;47.932;7.810;2023-03-11T05:06:27;1.80;99.90
17423;DHT22;8829;47.932;7.810;2023-03-11T05:08:54;2.00;99.90
17423;DHT22;8829;47.932;7.810;2023-03-11T05:11:21;2.10;99.90
17423;DHT22;8829;47.932;7.810;2023-03-11T05:13:48;2.20;99.90
17423;DHT22;8829;47.932;7.810;2023-03-11T05:16:15;2.20;99.90
17423;DHT22;8829;47.932;7.810;2023-03-11T05:18:43;2.30;99.90
17423;DHT22;8829;47.932;7.810;2023-03-11T05:21:10;2.10;99.90
17423;DHT22;8829;47.932;7.810;2023-03-11T05:23:37;2.00;99.90
17423;DHT22;8829;47.932;7.810;2023-03-11T05:26:05;1.90;99.90
17423;DHT22;8829;47.932;7.810;2023-03-11T05:28:31;1.90;99.90
17423;DHT22;8829;47.932;7.810;2023-03-11T05:30:58;1.80;99.90
17423;DHT22;8829;47.932;7.810;2023-03-11T05:33:25;1.80;99.90
17423;DHT22;8829;47.932;7.810;2023-03-11T05:36:04;1.90;99.90
17423;DHT22;8829;47.932;7.810;2023-03-11T05:38:31;1.90;99.90
17423;DHT22;8829;47.932;7.810;2023-03-11T05:40:58;1.80;99.90
17423;DHT22;8829;47.932;7.810;2023-03-11T05:43:25;1.60;99.90
17423;DHT22;8829;47.932;7.810;2023-03-11T05:45:51;1.70;99.90
17423;DHT22;8829;47.932;7.810;2023-03-11T05:48:18;1.60;99.90
17423;DHT22;8829;47.932;7.810;2023-03-11T05:50:45;1.60;99.90
17423;DHT22;8829;47.932;7.810;2023-03-11T05:53:13;1.60;99.90
17423;DHT22;8829;47.932;7.810;2023-03-11T05:55:41;1.60;99.90
17423;DHT22;8829;47.932;7.810;2023-03-11T05:58:07;1.70;99.90
17423;DHT22;8829;47.932;7.810;2023-03-11T06:00:34;1.70;99.90
17423;DHT22;8829;47.932;7.810;2023-03-11T06:03:01;1.70;99.90
17423;DHT22;8829;47.932;7.810;2023-03-11T06:05:28;1.70;99.90
17423;DHT22;8829;47.932;7.810;2023-03-11T06:07:55;1.80;99.90
17423;DHT22;8829;47.932;7.810;2023-03-11T06:10:24;1.80;99.90
17423;DHT22;8829;47.932;7.810;2023-03-11T06:12:50;1.80;99.90
17423;DHT22;8829;47.932;7.810;2023-03-11T06:15:18;1.70;99.90
17423;DHT22;8829;47.932;7.810;2023-03-11T06:17:44;1.80;99.90
17423;DHT22;8829;47.932;7.810;2023-03-11T06:20:11;2.00;99.90
17423;DHT22;8829;47.932;7.810;2023-03-11T06:22:38;2.20;99.90
17423;DHT22;8829;47.932;7.810;2023-03-11T06:25:05;2.20;99.90
17423;DHT22;8829;47.932;7.810;2023-03-11T06:27:34;2.10;99.90
17423;DHT22;8829;47.932;7.810;2023-03-11T06:30:02;2.10;99.90
17423;DHT22;8829;47.932;7.810;2023-03-11T06:32:29;1.90;99.90
17423;DHT22;8829;47.932;7.810;2023-03-11T06:34:56;1.90;99.90
17423;DHT22;8829;47.932;7.810;2023-03-11T06:37:23;1.90;99.90
17423;DHT22;8829;47.932;7.810;2023-03-11T06:39:51;1.90;99.90
17423;DHT22;8829;47.932;7.810;2023-03-11T06:42:18;1.80;99.90
17423;DHT22;8829;47.932;7.810;2023-03-11T06:44:47;1.90;99.90
17423;DHT22;8829;47.932;7.810;2023-03-11T06:47:14;2.00;99.90
17423;DHT22;8829;47.932;7.810;2023-03-11T06:49:41;2.00;99.90
17423;DHT22;8829;47.932;7.810;2023-03-11T06:52:08;1.90;99.90
17423;DHT22;8829;47.932;7.810;2023-03-11T06:54:34;1.80;99.90
17423;DHT22;8829;47.932;7.810;2023-03-11T06:57:02;2.00;99.90
17423;DHT22;8829;47.932;7.810;2023-03-11T06:59:28;2.00;99.90
17423;DHT22;8829;47.932;7.810;2023-03-11T07:01:57;2.00;99.90
17423;DHT22;8829;47.932;7.810;2023-03-11T07:04:24;1.90;99.90
17423;DHT22;8829;47.932;7.810;2023-03-11T07:06:53;2.00;99.90
17423;DHT22;8829;47.932;7.810;2023-03-11T07:09:20;1.80;99.90
17423;DHT22;8829;47.932;7.810;2023-03-11T07:11:49;1.80;99.90
17423;DHT22;8829;47.932;7.810;2023-03-11T07:14:16;1.70;99.90
17423;DHT22;8829;47.932;7.810;2023-03-11T07:16:44;1.70;99.90
17423;DHT22;8829;47.932;7.810;2023-03-11T07:19:13;1.70;99.90
17423;DHT22;8829;47.932;7.810;2023-03-11T07:21:40;1.60;99.90
17423;DHT22;8829;47.932;7.810;2023-03-11T07:24:07;1.60;99.90
17423;DHT22;8829;47.932;7.810;2023-03-11T07:26:34;1.70;99.90
17423;DHT22;8829;47.932;7.810;2023-03-11T07:29:02;1.80;99.90
17423;DHT22;8829;47.932;7.810;2023-03-11T07:31:32;1.80;99.90
17423;DHT22;8829;47.932;7.810;2023-03-11T07:34:01;1.90;99.90
17423;DHT22;8829;47.932;7.810;2023-03-11T07:36:29;2.00;99.90
17423;DHT22;8829;47.932;7.810;2023-03-11T07:38:57;2.10;99.90
17423;DHT22;8829;47.932;7.810;2023-03-11T07:41:25;2.10;99.90
17423;DHT22;8829;47.932;7.810;2023-03-11T07:43:53;2.30;99.90
17423;DHT22;8829;47.932;7.810;2023-03-11T07:46:21;2.10;99.90
17423;DHT22;8829;47.932;7.810;2023-03-11T07:48:49;2.10;99.90
17423;DHT22;8829;47.932;7.810;2023-03-11T07:51:18;2.10;99.90
17423;DHT22;8829;47.932;7.810;2023-03-11T07:53:47;1.80;99.90
17423;DHT22;8829;47.932;7.810;2023-03-11T07:56:16;1.60;99.90
17423;DHT22;8829;47.932;7.810;2023-03-11T07:58:44;1.60;99.90
17423;DHT22;8829;47.932;7.810;2023-03-11T08:01:13;1.80;99.90
17423;DHT22;8829;47.932;7.810;2023-03-11T08:03:43;1.80;99.90
17423;DHT22;8829;47.932;7.810;2023-03-11T08:06:14;1.80;99.90
17423;DHT22;8829;47.932;7.810;2023-03-11T08:08:42;1.70;99.90
17423;DHT22;8829;47.932;7.810;2023-03-11T08:11:11;1.80;99.90
17423;DHT22;8829;47.932;7.810;2023-03-11T08:13:38;1.80;99.90
17423;DHT22;8829;47.932;7.810;2023-03-11T08:16:06;1.80;99.90
17423;DHT22;8829;47.932;7.810;2023-03-11T08:18:33;1.80;99.90
17423;DHT22;8829;47.932;7.810;2023-03-11T08:21:04;1.90;99.90
17423;DHT22;8829;47.932;7.810;2023-03-11T08:23:30;1.90;99.90
17423;DHT22;8829;47.932;7.810;2023-03-11T08:25:57;1.90;99.90
17423;DHT22;8829;47.932;7.810;2023-03-11T08:28:25;2.10;99.90
17423;DHT22;8829;47.932;7.810;2023-03-11T08:30:52;2.20;99.90
17423;DHT22;8829;47.932;7.810;2023-03-11T08:33:19;2.20;99.90
17423;DHT22;8829;47.932;7.810;2023-03-11T08:35:48;2.20;99.90
17423;DHT22;8829;47.932;7.810;2023-03-11T08:38:15;2.40;99.90
17423;DHT22;8829;47.932;7.810;2023-03-11T08:40:43;2.30;99.90
17423;DHT22;8829;47.932;7.810;2023-03-11T08:43:11;2.30;99.90
17423;DHT22;8829;47.932;7.810;2023-03-11T08:45:40;2.50;99.90
17423;DHT22;8829;47.932;7.810;2023-03-11T08:48:09;2.60;99.90
17423;DHT22;8829;47.932;7.810;2023-03-11T08:50:36;2.50;99.90
17423;DHT22;8829;47.932;7.810;2023-03-11T08:53:05;2.40;99.90
17423;DHT22;8829;47.932;7.810;2023-03-11T08:55:33;2.50;99.90
17423;DHT22;8829;47.932;7.810;2023-03-11T08:58:00;2.70;99.90
17423;DHT22;8829;47.932;7.810;2023-03-11T09:00:27;3.30;99.90
17423;DHT22;8829;47.932;7.810;2023-03-11T09:02:55;4.30;99.90
17423;DHT22;8829;47.932;7.810;2023-03-11T09:05:21;5.10;99.90
17423;DHT22;8829;47.932;7.810;2023-03-11T09:07:48;5.50;99.90
17423;DHT22;8829;47.932;7.810;2023-03-11T09:10:16;6.00;99.90
17423;DHT22;8829;47.932;7.810;2023-03-11T09:12:43;6.30;99.90
17423;DHT22;8829;47.932;7.810;2023-03-11T09:15:09;6.00;99.90
17423;DHT22;8829;47.932;7.810;2023-03-11T09:17:36;5.20;99.90
17423;DHT22;8829;47.932;7.810;2023-03-11T09:20:06;5.70;99.90
17423;DHT22;8829;47.932;7.810;2023-03-11T09:22:33;6.30;99.90
17423;DHT22;8829;47.932;7.810;2023-03-11T09:24:59;6.90;99.90
17423;DHT22;8829;47.932;7.810;2023-03-11T09:27:26;7.70;99.90
17423;DHT22;8829;47.932;7.810;2023-03-11T09:29:53;7.40;99.90
17423;DHT22;8829;47.932;7.810;2023-03-11T09:32:19;7.20;99.90
17423;DHT22;8829;47.932;7.810;2023-03-11T09:34:47;7.20;99.90
17423;DHT22;8829;47.932;7.810;2023-03-11T09:37:15;7.60;99.90
17423;DHT22;8829;47.932;7.810;2023-03-11T09:39:43;7.40;99.90
17423;DHT22;8829;47.932;7.810;2023-03-11T09:42:16;6.30;99.90
17423;DHT22;8829;47.932;7.810;2023-03-11T09:44:50;5.90;99.90
17423;DHT22;8829;47.932;7.810;2023-03-11T09:47:37;5.80;99.90
17423;DHT22;8829;47.932;7.810;2023-03-11T09:50:25;5.30;99.90
17423;DHT22;8829;47.932;7.810;2023-03-11T09:53:11;5.40;99.90
17423;DHT22;8829;47.932;7.810;2023-03-11T09:55:45;5.40;99.90
17423;DHT22;8829;47.932;7.810;2023-03-11T09:58:18;5.40;99.90
17423;DHT22;8829;47.932;7.810;2023-03-11T10:00:46;5.60;99.90
17423;DHT22;8829;47.932;7.810;2023-03-11T10:03:31;5.80;99.90
17423;DHT22;8829;47.932;7.810;2023-03-11T10:06:12;5.90;99.90
17423;DHT22;8829;47.932;7.810;2023-03-11T10:08:45;5.70;99.90
17423;DHT22;8829;47.932;7.810;2023-03-11T10:11:34;6.10;99.90
17423;DHT22;8829;47.932;7.810;2023-03-11T10:14:13;6.10;99.90
17423;DHT22;8829;47.932;7.810;2023-03-11T10:16:48;5.90;99.90
17423;DHT22;8829;47.932;7.810;2023-03-11T10:19:31;5.90;99.90
17423;DHT22;8829;47.932;7.810;2023-03-11T10:22:06;5.90;99.90
17423;DHT22;8829;47.932;7.810;2023-03-11T10:24:47;5.80;99.90
17423;DHT22;8829;47.932;7.810;2023-03-11T10:27:17;5.60;99.90
17423;DHT22;8829;47.932;7.810;2023-03-11T10:29:52;4.90;99.90
17423;DHT22;8829;47.932;7.810;2023-03-11T10:32:24;5.00;99.90
17423;DHT22;8829;47.932;7.810;2023-03-11T10:34:57;5.20;99.90
17423;DHT22;8829;47.932;7.810;2023-03-11T10:37:27;5.40;99.90
17423;DHT22;8829;47.932;7.810;2023-03-11T10:40:04;5.50;99.90
17423;DHT22;8829;47.932;7.810;2023-03-11T10:42:35;5.70;99.90
17423;DHT22;8829;47.932;7.810;2023-03-11T10:45:04;5.90;99.90
17423;DHT22;8829;47.932;7.810;2023-03-11T10:47:31;6.00;99.90
17423;DHT22;8829;47.932;7.810;2023-03-11T10:49:58;6.00;99.90
17423;DHT22;8829;47.932;7.810;2023-03-11T10:52:24;5.90;99.90
17423;DHT22;8829;47.932;7.810;2023-03-11T10:55:00;5.40;99.90
17423;DHT22;8829;47.932;7.810;2023-03-11T10:57:32;5.20;99.90
17423;DHT22;8829;47.932;7.810;2023-03-11T11:00:00;5.00;99.90
17423;DHT22;8829;47.932;7.810;2023-03-11T11:02:38;5.00;99.90
17423;DHT22;8829;47.932;7.810;2023-03-11T11:05:25;5.30;99.90
17423;DHT22;8829;47.932;7.810;2023-03-11T11:08:02;5.30;99.90
17423;DHT22;8829;47.932;7.810;2023-03-11T11:10:31;5.50;99.90
17423;DHT22;8829;47.932;7.810;2023-03-11T11:13:00;5.70;99.90
17423;DHT22;8829;47.932;7.810;2023-03-11T11:15:30;5.70;99.90
17423;DHT22;8829;47.932;7.810;2023-03-11T11:18:01;5.80;99.90
17423;DHT22;8829;47.932;7.810;2023-03-11T11:20:30;5.90;99.90
17423;DHT22;8829;47.932;7.810;2023-03-11T11:22:58;6.00;99.90
17423;DHT22;8829;47.932;7.810;2023-03-11T11:25:35;6.00;99.90
17423;DHT22;8829;47.932;7.810;2023-03-11T11:28:14;6.00;99.90
17423;DHT22;8829;47.932;7.810;2023-03-11T11:30:52;6.10;99.90
17423;DHT22;8829;47.932;7.810;2023-03-11T11:33:22;6.30;99.90
17423;DHT22;8829;47.932;7.810;2023-03-11T11:35:53;6.50;99.90
17423;DHT22;8829;47.932;7.810;2023-03-11T11:38:21;6.70;99.90
17423;DHT22;8829;47.932;7.810;2023-03-11T11:40:52;7.00;99.90
17423;DHT22;8829;47.932;7.810;2023-03-11T11:43:25;7.20;99.90
17423;DHT22;8829;47.932;7.810;2023-03-11T11:45:56;7.30;99.90
17423;DHT22;8829;47.932;7.810;2023-03-11T11:48:31;7.30;99.90
17423;DHT22;8829;47.932;7.810;2023-03-11T11:51:00;7.30;99.90
17423;DHT22;8829;47.932;7.810;2023-03-11T11:53:31;7.30;99.90
17423;DHT22;8829;47.932;7.810;2023-03-11T11:56:01;7.30;99.90
17423;DHT22;8829;47.932;7.810;2023-03-11T11:58:31;7.40;99.90
17423;DHT22;8829;47.932;7.810;2023-03-11T12:01:06;7.30;99.90
17423;DHT22;8829;47.932;7.810;2023-03-11T12:03:54;7.00;99.90
17423;DHT22;8829;47.932;7.810;2023-03-11T12:06:29;7.20;99.90
17423;DHT22;8829;47.932;7.810;2023-03-11T12:09:05;7.30;99.90
17423;DHT22;8829;47.932;7.810;2023-03-11T12:11:45;7.30;99.90
17423;DHT22;8829;47.932;7.810;2023-03-11T12:14:20;7.20;99.90
17423;DHT22;8829;47.932;7.810;2023-03-11T12:16:55;7.10;99.90
17423;DHT22;8829;47.932;7.810;2023-03-11T12:19:33;6.70;99.90
17423;DHT22;8829;47.932;7.810;2023-03-11T12:22:32;6.70;99.90
17423;DHT22;8829;47.932;7.810;2023-03-11T12:25:27;6.50;99.90
17423;DHT22;8829;47.932;7.810;2023-03-11T12:28:04;6.50;99.90
17423;DHT22;8829;47.932;7.810;2023-03-11T12:30:36;6.50;99.90
17423;DHT22;8829;47.932;7.810;2023-03-11T12:33:13;6.30;99.90
17423;DHT22;8829;47.932;7.810;2023-03-11T12:35:48;6.40;99.90
17423;DHT22;8829;47.932;7.810;2023-03-11T12:38:18;6.40;99.90
17423;DHT22;8829;47.932;7.810;2023-03-11T12:40:55;6.50;99.90
17423;DHT22;8829;47.932;7.810;2023-03-11T12:49:39;6.40;99.90
17423;DHT22;8829;47.932;7.810;2023-03-11T12:52:25;6.40;99.90
17423;DHT22;8829;47.932;7.810;2023-03-11T12:55:23;6.60;99.90
17423;DHT22;8829;47.932;7.810;2023-03-11T12:57:55;6.70;99.90
17423;DHT22;8829;47.932;7.810;2023-03-11T13:00:28;6.70;99.90
17423;DHT22;8829;47.932;7.810;2023-03-11T13:03:38;6.60;99.90
17423;DHT22;8829;47.932;7.810;2023-03-11T13:06:20;6.50;99.90
17423;DHT22;8829;47.932;7.810;2023-03-11T13:08:51;6.60;99.90
17423;DHT22;8829;47.932;7.810;2023-03-11T13:11:34;6.60;99.90
17423;DHT22;8829;47.932;7.810;2023-03-11T13:14:20;6.60;99.90
17423;DHT22;8829;47.932;7.810;2023-03-11T13:16:49;6.60;99.90
17423;DHT22;8829;47.932;7.810;2023-03-11T13:19:36;6.50;99.90
17423;DHT22;8829;47.932;7.810;2023-03-11T13:22:08;6.50;99.90
17423;DHT22;8829;47.932;7.810;2023-03-11T13:24:54;6.30;99.90
17423;DHT22;8829;47.932;7.810;2023-03-11T13:27:34;6.40;99.90
17423;DHT22;8829;47.932;7.810;2023-03-11T13:30:09;6.60;99.90
17423;DHT22;8829;47.932;7.810;2023-03-11T13:32:55;6.60;99.90
17423;DHT22;8829;47.932;7.810;2023-03-11T13:35:43;6.70;99.90
17423;DHT22;8829;47.932;7.810;2023-03-11T13:38:37;6.80;99.90
17423;DHT22;8829;47.932;7.810;2023-03-11T13:41:13;7.00;99.90
17423;DHT22;8829;47.932;7.810;2023-03-11T13:43:44;7.00;99.90
17423;DHT22;8829;47.932;7.810;2023-03-11T13:46:25;7.10;99.90
17423;DHT22;8829;47.932;7.810;2023-03-11T13:48:59;7.00;99.90
17423;DHT22;8829;47.932;7.810;2023-03-11T13:51:34;6.80;99.90
17423;DHT22;8829;47.932;7.810;2023-03-11T13:54:06;6.80;99.90
17423;DHT22;8829;47.932;7.810;2023-03-11T13:56:42;7.00;99.90
17423;DHT22;8829;47.932;7.810;2023-03-11T13:59:19;6.90;99.90
17423;DHT22;8829;47.932;7.810;2023-03-11T14:01:48;7.10;99.90
17423;DHT22;8829;47.932;7.810;2023-03-11T14:04:19;7.10;99.90
17423;DHT22;8829;47.932;7.810;2023-03-11T14:06:46;6.80;99.90
17423;DHT22;8829;47.932;7.810;2023-03-11T14:09:20;6.80;99.90
17423;DHT22;8829;47.932;7.810;2023-03-11T14:11:47;6.90;99.90
17423;DHT22;8829;47.932;7.810;2023-03-11T14:14:29;6.80;99.90
17423;DHT22;8829;47.932;7.810;2023-03-11T14:16:58;6.80;99.90
17423;DHT22;8829;47.932;7.810;2023-03-11T14:19:28;7.10;99.90
17423;DHT22;8829;47.932;7.810;2023-03-11T14:21:56;7.30;99.90
17423;DHT22;8829;47.932;7.810;2023-03-11T14:24:26;7.40;99.90
17423;DHT22;8829;47.932;7.810;2023-03-11T14:26:55;7.50;99.90
17423;DHT22;8829;47.932;7.810;2023-03-11T14:29:29;7.60;99.90
17423;DHT22;8829;47.932;7.810;2023-03-11T14:31:58;7.60;99.90
17423;DHT22;8829;47.932;7.810;2023-03-11T14:34:26;7.50;99.90
17423;DHT22;8829;47.932;7.810;2023-03-11T14:36:55;7.40;99.90
17423;DHT22;8829;47.932;7.810;2023-03-11T14:39:26;7.40;99.90
17423;DHT22;8829;47.932;7.810;2023-03-11T14:41:55;7.30;99.90
17423;DHT22;8829;47.932;7.810;2023-03-11T14:44:25;7.40;99.90
17423;DHT22;8829;47.932;7.810;2023-03-11T14:47:00;7.70;99.90
17423;DHT22;8829;47.932;7.810;2023-03-11T14:49:28;7.80;99.90
17423;DHT22;8829;47.932;7.810;2023-03-11T14:51:59;7.80;99.90
17423;DHT22;8829;47.932;7.810;2023-03-11T14:54:30;7.60;99.90
17423;DHT22;8829;47.932;7.810;2023-03-11T14:57:02;7.60;99.90
17423;DHT22;8829;47.932;7.810;2023-03-11T14:59:30;7.80;99.90
17423;DHT22;8829;47.932;7.810;2023-03-11T15:02:21;7.80;99.90
17423;DHT22;8829;47.932;7.810;2023-03-11T15:04:52;7.80;99.90
17423;DHT22;8829;47.932;7.810;2023-03-11T15:07:20;7.70;99.90
17423;DHT22;8829;47.932;7.810;2023-03-11T15:09:48;7.70;99.90
17423;DHT22;8829;47.932;7.810;2023-03-11T15:12:30;7.70;99.90
17423;DHT22;8829;47.932;7.810;2023-03-11T15:14:57;7.60;99.90
17423;DHT22;8829;47.932;7.810;2023-03-11T15:17:26;7.60;99.90
17423;DHT22;8829;47.932;7.810;2023-03-11T15:19:56;7.50;99.90
17423;DHT22;8829;47.932;7.810;2023-03-11T15:22:25;7.60;99.90
17423;DHT22;8829;47.932;7.810;2023-03-11T15:24:56;7.40;99.90
17423;DHT22;8829;47.932;7.810;2023-03-11T15:27:29;7.40;99.90
17423;DHT22;8829;47.932;7.810;2023-03-11T15:29:57;7.30;99.90
17423;DHT22;8829;47.932;7.810;2023-03-11T15:32:34;7.30;99.90
17423;DHT22;8829;47.932;7.810;2023-03-11T15:35:12;7.30;99.90
17423;DHT22;8829;47.932;7.810;2023-03-11T15:37:40;7.30;99.90
17423;DHT22;8829;47.932;7.810;2023-03-11T15:40:20;7.20;99.90
17423;DHT22;8829;47.932;7.810;2023-03-11T15:42:48;7.20;99.90
17423;DHT22;8829;47.932;7.810;2023-03-11T15:45:16;7.20;99.90
17423;DHT22;8829;47.932;7.810;2023-03-11T15:47:44;7.10;99.90
17423;DHT22;8829;47.932;7.810;2023-03-11T15:50:18;7.20;99.90
17423;DHT22;8829;47.932;7.810;2023-03-11T15:52:47;7.20;99.90
17423;DHT22;8829;47.932;7.810;2023-03-11T15:55:15;7.20;99.90
17423;DHT22;8829;47.932;7.810;2023-03-11T15:57:45;7.10;99.90
17423;DHT22;8829;47.932;7.810;2023-03-11T16:00:17;7.10;99.90
17423;DHT22;8829;47.932;7.810;2023-03-11T16:02:47;7.10;99.90
17423;DHT22;8829;47.932;7.810;2023-03-11T16:05:16;7.20;99.90
17423;DHT22;8829;47.932;7.810;2023-03-11T16:07:43;7.20;99.90
17423;DHT22;8829;47.932;7.810;2023-03-11T16:10:12;7.10;99.90
17423;DHT22;8829;47.932;7.810;2023-03-11T16:12:41;7.10;99.90
17423;DHT22;8829;47.932;7.810;2023-03-11T16:15:18;7.00;99.90
17423;DHT22;8829;47.932;7.810;2023-03-11T16:17:44;7.00;99.90
17423;DHT22;8829;47.932;7.810;2023-03-11T16:20:11;6.90;99.90
17423;DHT22;8829;47.932;7.810;2023-03-11T16:22:38;6.80;99.90
17423;DHT22;8829;47.932;7.810;2023-03-11T16:25:06;6.80;99.90
17423;DHT22;8829;47.932;7.810;2023-03-11T16:27:35;6.90;99.90